createdAt,value
2023-03-02T00:00:17.556Z,9.27
2023-03-02T00:05:19.802Z,8.75
2023-03-02T00:10:21.530Z,8.65
2023-03-02T00:15:23.214Z,9.38
2023-03-02T00:20:24.961Z,8.77
2023-03-02T00:25:26.770Z,9.00
2023-03-02T00:30:28.551Z,9.48
2023-03-02T00:35:30.411Z,8.90
2023-03-02T00:40:32.060Z,8.48
2023-03-02T00:45:33.761Z,8.80
2023-03-02T00:50:40.980Z,8.90
2023-03-02T00:55:42.792Z,8.25
2023-03-02T01:00:44.563Z,9.48
2023-03-02T01:05:46.527Z,8.68
2023-03-02T01:10:48.406Z,8.93
2023-03-02T01:15:59.303Z,8.18
2023-03-02T01:21:19.168Z,7.75
2023-03-02T01:26:20.913Z,7.75
2023-03-02T01:31:23.500Z,8.52
2023-03-02T01:36:25.258Z,8.98
2023-03-02T01:41:27.433Z,8.65
2023-03-02T01:46:35.226Z,9.43
2023-03-02T01:51:43.781Z,9.75
2023-03-02T01:56:46.678Z,9.00
2023-03-02T02:01:55.401Z,9.27
2023-03-02T02:07:01.445Z,9.15
2023-03-02T02:12:03.173Z,9.18
2023-03-02T02:17:05.301Z,8.85
2023-03-02T02:22:09.815Z,9.13
2023-03-02T02:27:12.658Z,8.82
2023-03-02T02:32:21.734Z,8.68
2023-03-02T02:37:29.852Z,8.07
2023-03-02T02:42:35.885Z,8.20
2023-03-02T02:47:38.268Z,8.48
2023-03-02T02:52:41.588Z,8.40
2023-03-02T02:57:43.543Z,8.80
2023-03-02T03:02:50.861Z,8.38
2023-03-02T03:07:53.213Z,8.50
2023-03-02T03:12:56.314Z,8.13
2023-03-02T03:17:59.427Z,8.82
2023-03-02T03:23:01.389Z,8.98
2023-03-02T03:28:04.057Z,8.60
2023-03-02T03:33:05.745Z,9.57
2023-03-02T03:38:07.970Z,9.43
2023-03-02T03:43:09.771Z,9.43
2023-03-02T03:48:11.466Z,9.93
2023-03-02T03:53:13.264Z,9.07
2023-03-02T03:58:14.990Z,9.43
2023-03-02T04:03:18.207Z,10.13
2023-03-02T04:08:19.960Z,9.73
2023-03-02T04:13:21.713Z,10.77
2023-03-02T04:18:23.445Z,10.63
2023-03-02T04:23:25.172Z,10.70
2023-03-02T04:28:26.980Z,9.50
2023-03-02T04:33:28.816Z,10.80
2023-03-02T04:38:30.544Z,10.65
2023-03-02T04:43:32.410Z,9.68
2023-03-02T04:48:34.157Z,12.75
2023-03-02T04:53:35.865Z,11.88
2023-03-02T04:58:37.553Z,10.73
2023-03-02T05:03:39.313Z,10.82
2023-03-02T05:08:41.797Z,10.07
2023-03-02T05:13:43.583Z,10.25
2023-03-02T05:18:45.748Z,9.77
2023-03-02T05:23:47.850Z,10.07
2023-03-02T05:28:49.878Z,10.15
2023-03-02T05:33:51.843Z,10.55
2023-03-02T05:38:53.768Z,10.83
2023-03-02T05:43:55.666Z,10.55
2023-03-02T05:48:57.674Z,10.73
2023-03-02T05:53:59.546Z,9.75
2023-03-02T05:59:01.283Z,10.43
2023-03-02T06:04:03.068Z,9.93
2023-03-02T06:09:04.810Z,9.82
2023-03-02T06:14:06.577Z,10.35
2023-03-02T06:19:08.448Z,10.05
2023-03-02T06:24:10.230Z,9.32
2023-03-02T06:29:13.235Z,10.57
2023-03-02T06:34:15.675Z,10.07
2023-03-02T06:39:17.434Z,11.43
2023-03-02T06:44:19.347Z,10.30
2023-03-02T06:49:21.058Z,9.65
2023-03-02T06:54:24.134Z,10.57
2023-03-02T06:59:26.178Z,10.13
2023-03-02T07:04:28.511Z,9.43
2023-03-02T07:09:34.203Z,9.13
2023-03-02T07:14:36.582Z,9.82
2023-03-02T07:19:40.803Z,17.38
2023-03-02T07:24:44.889Z,9.10
2023-03-02T07:29:46.843Z,9.30
2023-03-02T07:34:48.699Z,8.70
2023-03-02T07:39:50.488Z,10.68
2023-03-02T07:44:54.240Z,9.57
2023-03-02T07:49:56.450Z,10.25
2023-03-02T07:54:58.337Z,10.07
2023-03-02T08:00:00.160Z,12.30
2023-03-02T08:05:01.992Z,11.20
2023-03-02T08:10:04.544Z,13.02
2023-03-02T08:15:07.168Z,11.75
2023-03-02T08:20:09.624Z,11.48
2023-03-02T08:25:11.488Z,10.15
2023-03-02T08:30:13.835Z,10.50
2023-03-02T08:35:15.800Z,11.68
2023-03-02T08:40:17.631Z,12.00
2023-03-02T08:45:20.931Z,11.68
2023-03-02T08:50:22.912Z,12.00
2023-03-02T08:55:24.896Z,12.02
2023-03-02T09:00:26.629Z,11.60
2023-03-02T09:05:28.428Z,11.85
2023-03-02T09:10:30.143Z,11.48
2023-03-02T09:15:31.886Z,13.30
2023-03-02T09:20:34.727Z,13.45
2023-03-02T09:25:36.489Z,12.98
2023-03-02T09:30:38.286Z,12.85
2023-03-02T09:35:40.051Z,11.82
2023-03-02T09:41:00.667Z,11.73
2023-03-02T09:46:27.492Z,12.05
2023-03-02T09:52:30.404Z,11.73
2023-03-02T09:57:36.185Z,11.88
2023-03-02T10:02:47.979Z,13.02
2023-03-02T10:07:49.976Z,12.05
2023-03-02T10:13:10.358Z,12.38
2023-03-02T10:18:24.074Z,12.32
2023-03-02T10:23:38.994Z,12.85
2023-03-02T10:28:52.154Z,13.20
2023-03-02T10:33:54.252Z,12.48
2023-03-02T10:38:57.307Z,12.05
2023-03-02T10:44:16.034Z,11.90
2023-03-02T10:49:35.960Z,13.02
2023-03-02T10:54:37.854Z,12.65
2023-03-02T10:59:47.643Z,11.95
2023-03-02T11:04:57.822Z,13.00
2023-03-02T11:10:01.826Z,11.75
2023-03-02T11:15:22.513Z,12.85
2023-03-02T11:20:28.431Z,12.88
2023-03-02T11:25:35.515Z,11.85
2023-03-02T11:30:45.074Z,11.68
2023-03-02T11:35:53.749Z,11.35
2023-03-02T11:41:06.446Z,11.55
2023-03-02T11:46:22.280Z,9.70
2023-03-02T11:51:29.277Z,10.88
2023-03-02T11:56:38.350Z,9.07
2023-03-02T12:01:41.023Z,10.20
2023-03-02T12:06:45.230Z,10.45
2023-03-02T12:11:53.571Z,11.18
2023-03-02T12:17:26.580Z,10.30
2023-03-02T12:22:31.116Z,9.10
2023-03-02T12:27:39.437Z,8.75
2023-03-02T12:32:43.526Z,7.93
2023-03-02T12:38:19.384Z,8.15
2023-03-02T12:43:29.996Z,7.50
2023-03-02T12:49:03.502Z,7.05
2023-03-02T12:54:07.613Z,7.57
2023-03-02T12:59:24.043Z,7.63
2023-03-02T13:04:27.115Z,7.80
2023-03-02T13:09:29.494Z,7.75
2023-03-02T13:14:31.313Z,7.63
2023-03-02T13:19:33.961Z,7.15
2023-03-02T13:24:47.553Z,6.95
2023-03-02T13:29:52.197Z,7.70
2023-03-02T13:35:00.491Z,8.23
2023-03-02T13:40:05.567Z,7.28
2023-03-02T13:45:21.472Z,8.95
2023-03-02T13:50:32.682Z,10.05
2023-03-02T13:55:35.329Z,9.57
2023-03-02T14:00:39.363Z,8.52
2023-03-02T14:05:41.444Z,8.15
2023-03-02T14:10:43.660Z,9.18
2023-03-02T14:15:51.080Z,9.00
2023-03-02T14:20:56.547Z,8.25
2023-03-02T14:25:58.612Z,9.05
2023-03-02T14:31:00.804Z,9.02
2023-03-02T14:36:04.567Z,8.93
2023-03-02T14:41:13.906Z,8.23
2023-03-02T14:51:35.751Z,8.20
2023-03-02T14:56:37.697Z,7.57
2023-03-02T15:01:40.059Z,8.10
2023-03-02T15:06:43.066Z,7.60
2023-03-02T15:11:44.912Z,7.75
2023-03-02T15:16:46.892Z,7.78
2023-03-02T15:21:48.663Z,8.18
2023-03-02T15:26:51.398Z,7.65
2023-03-02T15:31:53.232Z,7.38
2023-03-02T15:36:55.103Z,7.60
2023-03-02T15:41:56.809Z,8.32
2023-03-02T15:46:59.919Z,7.72
2023-03-02T15:52:01.935Z,8.55
2023-03-02T15:57:03.714Z,7.70
2023-03-02T16:02:05.749Z,7.63
2023-03-02T16:07:07.685Z,7.35
2023-03-02T16:12:09.425Z,7.90
2023-03-02T16:17:11.828Z,6.82
2023-03-02T16:22:13.608Z,8.38
2023-03-02T16:27:15.732Z,7.80
2023-03-02T16:32:17.603Z,9.35
2023-03-02T16:37:19.373Z,8.45
2023-03-02T16:42:21.381Z,8.10
2023-03-02T16:47:23.189Z,7.97
2023-03-02T16:52:24.983Z,8.20
2023-03-02T16:57:26.799Z,8.05
2023-03-02T17:02:29.297Z,7.53
2023-03-02T17:07:31.190Z,6.70
2023-03-02T17:12:33.048Z,6.80
2023-03-02T17:17:34.802Z,11.27
2023-03-02T17:22:36.771Z,15.77
2023-03-02T17:27:39.364Z,17.67
2023-03-02T17:32:41.908Z,19.55
2023-03-02T17:37:43.914Z,20.05
2023-03-02T17:42:45.695Z,18.38
2023-03-02T17:47:49.619Z,18.73
2023-03-02T17:52:51.634Z,17.77
2023-03-02T17:57:53.434Z,18.38
2023-03-02T18:02:55.182Z,20.20
2023-03-02T18:07:57.339Z,20.00
2023-03-02T18:12:59.095Z,18.85
2023-03-02T18:18:00.805Z,19.48
2023-03-02T18:23:02.677Z,19.48
2023-03-02T18:28:04.547Z,18.33
2023-03-02T18:33:06.272Z,20.30
2023-03-02T18:38:08.543Z,21.58
2023-03-02T18:43:10.472Z,21.92
2023-03-02T18:48:12.343Z,21.17
2023-03-02T18:53:14.177Z,20.48
2023-03-02T18:58:21.477Z,24.88
2023-03-02T19:03:24.730Z,20.35
2023-03-02T19:08:27.367Z,21.30
2023-03-02T19:13:29.274Z,20.75
2023-03-02T19:18:31.328Z,19.50
2023-03-02T19:23:33.136Z,19.48
2023-03-02T19:28:36.125Z,18.60
2023-03-02T19:33:38.776Z,19.00
2023-03-02T19:38:42.774Z,20.00
2023-03-02T19:43:45.898Z,20.85
2023-03-02T19:48:47.646Z,19.85
2023-03-02T19:53:49.513Z,19.02
2023-03-02T19:58:54.025Z,18.55
2023-03-02T20:03:57.791Z,19.80
2023-03-02T20:09:02.540Z,20.25
2023-03-02T20:14:04.592Z,20.27
2023-03-02T20:19:06.414Z,20.25
2023-03-02T20:24:08.376Z,19.98
2023-03-02T20:29:11.665Z,19.35
2023-03-02T20:34:16.450Z,21.45
2023-03-02T20:39:34.872Z,21.65
2023-03-02T20:44:36.989Z,22.00
2023-03-02T20:49:39.243Z,20.98
2023-03-02T20:54:43.347Z,21.58
2023-03-02T20:59:45.929Z,21.23
2023-03-02T21:04:47.952Z,21.23
2023-03-02T21:09:50.962Z,21.05
2023-03-02T21:14:52.733Z,19.67
2023-03-02T21:19:55.036Z,20.92
2023-03-02T21:24:57.006Z,19.38
2023-03-02T21:29:59.704Z,23.15
2023-03-02T21:35:02.508Z,22.67
2023-03-02T21:40:04.921Z,23.23
2023-03-02T21:45:08.945Z,22.50
2023-03-02T21:50:17.037Z,22.45
2023-03-02T21:55:19.377Z,21.77
2023-03-02T22:00:32.861Z,22.02
2023-03-02T22:05:35.437Z,21.42
2023-03-02T22:10:43.993Z,21.45
2023-03-02T22:15:47.035Z,21.83
2023-03-02T22:20:51.158Z,21.50
2023-03-02T22:25:56.538Z,21.63
2023-03-02T22:31:00.367Z,21.90
2023-03-02T22:36:11.991Z,19.45
2023-03-02T22:41:16.392Z,21.20
2023-03-02T22:46:21.950Z,21.80
2023-03-02T22:51:27.836Z,21.95
2023-03-02T22:56:34.078Z,22.88
2023-03-02T23:01:42.404Z,21.70
2023-03-02T23:06:49.377Z,20.67
2023-03-02T23:11:52.883Z,19.58
2023-03-02T23:17:13.474Z,19.27
2023-03-02T23:22:15.174Z,18.52
2023-03-02T23:27:16.891Z,18.15
2023-03-02T23:32:19.660Z,18.20
2023-03-02T23:37:21.637Z,17.02
2023-03-02T23:42:23.345Z,16.73
2023-03-02T23:47:25.102Z,16.42
2023-03-02T23:52:26.835Z,14.25
2023-03-02T23:57:28.528Z,13.00
